Tiempo atmosférico en la estación meteorológica de Llucmajor, Puig d?Escorca, Illes Balears (113 m.)



Fecha
DESCASC
Temp. máxima en grados centígrados (hora)
DESCASC
Temp. mínima en grados centígrados (hora)
DESCASC
Temp. media en grados centígrados
DESCASC
Racha de viento máxima en m/sg (hora)
DESCASC
Velocidad máxima media en intervalos de 10 minutos(hora)
DESCASC
Precipitaciones diarias en mm
DESCASC
Precipitaciones de 00:00 a 06:00 en mm
DESCASC
Precipitaciones de 06:00 a 12:00 en mm
DESCASC
Precipitaciones de 12:00 a 18:00 en mm
DESCASC
Precipitaciones de 18:00 a 24:00 en mm
DESCASC

Gráficas

Temp. máximas Temp. mínimas Temp. medias Precipitaciones Rachas de viento máximas Velocidades máximas media en intervalos de 10 minutos

Datos horarios

Fecha y hora oficial Temperatura (ºC) Velocidad del viento (km/h) Dirección del viento Racha (km/h) Dirección de racha Precipitación (mm) Presión (hPa) Tendencia (hPa) Humedad (%)
2020-07-02 23:00:00 23.5 8 Sudeste 14 Sudeste 0 -- -- 87
2020-07-02 22:00:00 24 8 Sudeste 17 Este 0 -- -- 84
2020-07-02 21:00:00 24.9 13 Sudeste 18 Este 0 -- -- 79
2020-07-02 20:00:00 26.7 8 Sudeste 14 Sudeste 0 -- -- 73
2020-07-02 19:00:00 29 7 Sudoeste 14 Sur 0 -- -- 66
2020-07-02 18:00:00 29.3 9 Sudoeste 18 Sur 0 -- -- 67
2020-07-02 17:00:00 29.1 10 Sudoeste 21 Sur 0 -- -- 67
2020-07-02 16:00:00 29.3 13 Sudoeste 19 Sur 0 -- -- 65
2020-07-02 15:00:00 28.9 12 Sur 20 Sur 0 -- -- 66
2020-07-02 14:00:00 28.7 10 Sudoeste 19 Oeste 0 -- -- 69
2020-07-02 13:00:00 29.4 10 Sudoeste 21 Oeste 0 -- -- 67
2020-07-02 12:00:00 28.4 12 Sudoeste 22 Sur 0 -- -- 72
2020-07-02 11:00:00 27.4 15 Sur 22 Sur 0 -- -- 73
2020-07-02 10:00:00 27.9 10 Sudeste 19 Este 0 -- -- 72
2020-07-02 09:00:00 26.6 9 Este 15 Este 0 -- -- 83
2020-07-02 08:00:00 24.3 5 Este 9 Este 0 -- -- 95
2020-07-02 07:00:00 22.9 7 Sudeste 17 Sudeste 0 -- -- 97
2020-07-02 06:00:00 22.7 9 Sudeste 21 Este 0 -- -- 97
2020-07-02 05:00:00 21.6 15 Este 22 Este 0 -- -- 97
2020-07-02 04:00:00 21.5 12 Este 18 Este 0 -- -- 96
2020-07-02 03:00:00 21.8 11 Este 15 Este 0 -- -- 95
2020-07-02 02:00:00 21.9 10 Nordeste 15 Nordeste 0 -- -- 94
2020-07-02 01:00:00 22.4 5 Nordeste 12 Oeste 0 -- -- 93
2020-07-02 00:00:00 23.2 6 Oeste 16 Oeste 0 -- -- 92
2020-07-01 23:00:00 23.5 10 Oeste 22 Oeste 0 -- -- 91
2020-07-01 22:00:00 23.7 17 Oeste 27 Sudoeste 0 -- -- 89
2020-07-01 21:00:00 24.7 12 Oeste 27 Oeste 0 -- -- 84
2020-07-01 20:00:00 26.9 16 Oeste 31 Oeste 0 -- -- 74
2020-07-01 19:00:00 27.3 23 Oeste 36 Oeste 0 -- -- 72
2020-07-01 18:00:00 27.7 23 Oeste 40 Oeste 0 -- -- 73
2020-07-01 17:00:00 28.4 22 Oeste 38 Oeste 0 -- -- 72
2020-07-01 16:00:00 29.1 20 Oeste 37 Oeste 0 -- -- 72
2020-07-01 15:00:00 28.3 25 Oeste 37 Oeste 0 -- -- 71
2020-07-01 14:00:00 29 22 Oeste 33 Oeste 0 -- -- 64
2020-07-01 13:00:00 29.5 19 Oeste 28 Sudoeste 0 -- -- 61
2020-07-01 12:00:00 29.5 13 Sudoeste 19 Sudoeste 0 -- -- 63
2020-07-01 11:00:00 30 9 Sur 24 Sudeste 0 -- -- 57
2020-07-01 10:00:00 28.9 13 Sudeste 30 Este 0 -- -- 60
2020-07-01 09:00:00 27.1 18 Este 32 Este 0 -- -- 63
2020-07-01 08:00:00 24.9 15 Este 23 Este 0 -- -- 72
2020-07-01 07:00:00 22.5 14 Nordeste 21 Nordeste 0 -- -- 79
2020-07-01 06:00:00 21.7 13 Nordeste 26 Nordeste 0 -- -- 81
2020-07-01 05:00:00 22 17 Nordeste 26 Nordeste 0 -- -- 82
2020-07-01 04:00:00 22.2 14 Nordeste 27 Nordeste 0 -- -- 80
2020-07-01 03:00:00 22.6 17 Nordeste 28 Nordeste 0 -- -- 80
2020-07-01 02:00:00 22.4 16 Nordeste 25 Este 0 -- -- 85
2020-07-01 01:00:00 22.9 16 Este 25 Nordeste 0 -- -- 82
2020-07-01 00:00:00 23.3 12 Nordeste 21 Nordeste 0 -- -- 74
2020-06-30 23:00:00 24.1 15 Nordeste 30 Este 0 -- -- 62
2020-06-30 22:00:00 25.2 17 Este 32 Este 0 -- -- 58
2020-06-30 21:00:00 26.8 18 Este 30 Sudeste 0 -- -- 49
2020-06-30 20:00:00 28.1 19 Este 31 Sudeste 0 -- -- 49
2020-06-30 19:00:00 29.3 19 Sudeste 30 Sudeste 0 -- -- 48
2020-06-30 18:00:00 30 19 Sudeste 31 Este 0 -- -- 47
2020-06-30 17:00:00 30.2 16 Sudeste 28 Sudeste 0 -- -- 46
2020-06-30 16:00:00 30.6 16 Sudeste 30 Sur 0 -- -- 43
2020-06-30 15:00:00 30.4 18 Sudeste 31 Este 0 -- -- 52
2020-06-30 14:00:00 29.9 17 Sudeste 32 Sur 0 -- -- 55
2020-06-30 13:00:00 29.2 19 Sudeste 31 Sudeste 0 -- -- 57
2020-06-30 12:00:00 29.7 18 Sudeste 29 Sudeste 0 -- -- 51
2020-06-30 11:00:00 29.3 14 Sudeste 24 Sudeste 0 -- -- 60
2020-06-30 10:00:00 29.1 10 Este 22 Este 0 -- -- 62
2020-06-30 09:00:00 27.4 13 Este 22 Este 0 -- -- 72
2020-06-30 08:00:00 24.3 13 Este 21 Nordeste 0 -- -- 87
2020-06-30 07:00:00 21.3 10 Nordeste 17 Nordeste 0 -- -- 90
2020-06-30 06:00:00 20.6 11 Nordeste 15 Nordeste 0 -- -- 88
2020-06-30 05:00:00 20.8 8 Nordeste 15 Nordeste 0 -- -- 86
2020-06-30 04:00:00 21.2 9 Nordeste 17 Nordeste 0 -- -- 85
2020-06-30 03:00:00 21.2 13 Nordeste 17 Este 0 -- -- 80
2020-06-30 02:00:00 21.4 10 Este 15 Nordeste 0 -- -- 82
2020-06-30 01:00:00 21.2 11 Este 16 Nordeste 0 -- -- 88
2020-06-30 00:00:00 21.7 9 Este 14 Este 0 -- -- 87
2020-06-29 23:00:00 22.5 9 Este 14 Este 0 -- -- 86
2020-06-29 22:00:00 22.9 8 Este 11 Este 0 -- -- 83
2020-06-29 21:00:00 24.9 6 Este 12 Sur 0 -- -- 77
2020-06-29 20:00:00 26.3 8 Sur 17 Sur 0 -- -- 75
2020-06-29 19:00:00 27.1 11 Sur 21 Sur 0 -- -- 72
2020-06-29 18:00:00 27.5 13 Sur 21 Sur 0 -- -- 71
2020-06-29 17:00:00 28.2 11 Sudeste 20 Sur 0 -- -- 66
2020-06-29 16:00:00 28.1 13 Sur 27 Sur 0 -- -- 68
2020-06-29 15:00:00 28.5 13 Sur 22 Sudeste 0 -- -- 67
2020-06-29 14:00:00 27.5 15 Sur 25 Sur 0 -- -- 69
2020-06-29 13:00:00 27.8 16 Sur 30 Sudeste 0 -- -- 70
2020-06-29 12:00:00 28.6 12 Sudeste 21 Sur 0 -- -- 62
2020-06-29 11:00:00 28.4 10 Sudeste 19 Sudeste 0 -- -- 65
2020-06-29 10:00:00 29.3 7 Sudeste 17 Este 0 -- -- 59
2020-06-29 09:00:00 26.8 7 Este 12 Este 0 -- -- 68
2020-06-29 08:00:00 23.9 4 Este 7 Nordeste 0 -- -- 93
2020-06-29 07:00:00 21 6 Este 8 Nordeste 0 -- -- 95
2020-06-29 06:00:00 21 5 Nordeste 7 Norte 0 -- -- 94
2020-06-29 05:00:00 21.5 4 Noroeste 8 Noroeste 0 -- -- 93
2020-06-29 04:00:00 21.4 7 Noroeste 10 Norte 0 -- -- 92
2020-06-29 03:00:00 21.8 4 Noroeste 6 Noroeste 0 -- -- 91
2020-06-29 02:00:00 22.6 4 Oeste 6 Sudoeste 0 -- -- 89
2020-06-29 01:00:00 23 4 Sur 8 Sudoeste 0 -- -- 89
2020-06-29 00:00:00 22.7 4 Sudoeste 9 Sudoeste 0 -- -- 88
2020-06-28 23:00:00 23 6 Sudoeste 9 Sudoeste 0 -- -- 87
2020-06-28 22:00:00 23.3 4 Sudoeste 9 Sur 0 -- -- 85
2020-06-28 21:00:00 24.7 6 Sur 12 Sur 0 -- -- 79
2020-06-28 20:00:00 26.3 8 Sur 15 Sudoeste 0 -- -- 74
2020-06-28 19:00:00 28 9 Sudoeste 18 Sudoeste 0 -- -- 69
2020-06-28 18:00:00 28 12 Sudoeste 20 Sudoeste 0 -- -- 67
2020-06-28 17:00:00 28.5 12 Sudoeste 19 Sudoeste 0 -- -- 66
2020-06-28 16:00:00 28 12 Sudoeste 21 Sudoeste 0 -- -- 67
2020-06-28 15:00:00 28.7 11 Sudoeste 19 Sudoeste 0 -- -- 65
2020-06-28 14:00:00 27.8 13 Sudoeste 20 Sudoeste 0 -- -- 68
2020-06-28 13:00:00 28.1 13 Sudoeste 22 Sudoeste 0 -- -- 68
2020-06-28 12:00:00 27.2 14 Sudoeste 21 Sudoeste 0 -- -- 69
2020-06-28 11:00:00 26.8 12 Sudoeste 21 Sudoeste 0 -- -- 69
2020-06-28 10:00:00 28 5 Sudoeste 13 Sur 0 -- -- 66
2020-06-28 09:00:00 27.7 7 Sudoeste 10 Sudoeste 0 -- -- 66
2020-06-28 08:00:00 24.6 2 Norte 7 Norte 0 -- -- 90
2020-06-28 07:00:00 21 4 Norte 7 Noroeste 0 -- -- 93
2020-06-28 06:00:00 21.1 6 Noroeste 10 Oeste 0 -- -- 93
2020-06-28 05:00:00 21.5 7 Oeste 11 Oeste 0 -- -- 91
2020-06-28 04:00:00 22.2 5 Sudoeste 12 Sur 0 -- -- 90
2020-06-28 03:00:00 21.8 5 Sudeste 10 Sur 0 -- -- 87
2020-06-28 02:00:00 21.4 9 Este 10 Este 0 -- -- 85
2020-06-28 01:00:00 21.5 7 Este 12 Este 0 -- -- 86
2020-06-28 00:00:00 21.7 8 Este 11 Nordeste 0 -- -- 87
2020-06-27 23:00:00 22.5 5 Sudeste 6 Sudeste 0 -- -- 85
2020-06-27 22:00:00 23.5 3 Sudeste 9 Oeste 0 -- -- 79
2020-06-27 21:00:00 25 6 Oeste 17 Oeste 0 -- -- 71
2020-06-27 20:00:00 27 9 Oeste 19 Sudoeste 0 -- -- 66
2020-06-27 19:00:00 28 11 Oeste 19 Oeste 0 -- -- 65
2020-06-27 18:00:00 27.8 12 Oeste 23 Oeste 0 -- -- 67
2020-06-27 17:00:00 28.4 15 Oeste 27 Oeste 0 -- -- 63
2020-06-27 16:00:00 28.5 16 Oeste 27 Oeste 0 -- -- 64
2020-06-27 15:00:00 28.4 14 Oeste 26 Oeste 0 -- -- 64
2020-06-27 14:00:00 28 15 Oeste 25 Sudoeste 0 -- -- 64
2020-06-27 13:00:00 27.7 15 Oeste 24 Oeste 0 -- -- 66
2020-06-27 12:00:00 27.2 11 Sudoeste 18 Sudoeste 0 -- -- 71
2020-06-27 11:00:00 27.2 10 Sudoeste 17 Oeste 0 -- -- 71
2020-06-27 10:00:00 24.3 9 Sudoeste 11 Sudoeste 0 -- -- 80
2020-06-27 09:00:00 24.5 2 Nordeste 12 Este 0 -- -- 79
2020-06-27 08:00:00 23.2 8 Este 11 Este 0 -- -- 83
2020-06-27 07:00:00 22.3 7 Este 14 Este 0 -- -- 85
2020-06-27 06:00:00 22.4 7 Este 13 Este 0 -- -- 85
2020-06-27 05:00:00 22.5 4 Este 11 Sudeste 0 -- -- 84
2020-06-27 04:00:00 22.6 6 Sudeste 14 Sur 0 -- -- 84
2020-06-27 03:00:00 22.8 9 Sudeste 21 Sudeste 0 -- -- 84
2020-06-27 02:00:00 22.9 13 Sudeste 28 Este 0 -- -- 81
2020-06-27 01:00:00 22.9 18 Sudeste 26 Sudeste 0 -- -- 80
2020-06-27 00:00:00 22.9 10 Este 30 Este 0 -- -- 81
2020-06-26 23:00:00 22.7 18 Sudeste 31 Sudeste 0 -- -- 82
2020-06-26 22:00:00 22.7 21 Sudeste 30 Este 0 -- -- 81
2020-06-26 21:00:00 24.3 16 Sudeste 28 Este 0 -- -- 70
2020-06-26 20:00:00 26.6 17 Sudeste 34 Este 0 -- -- 55
2020-06-26 19:00:00 28.1 20 Sudeste 37 Sudeste 0 -- -- 47
2020-06-26 18:00:00 28.4 21 Sudeste 35 Este 0 -- -- 50
2020-06-26 17:00:00 28.6 18 Sudeste 31 Este 0 -- -- 53
2020-06-26 16:00:00 29.2 18 Sudeste 37 Sudeste 0 -- -- 47
2020-06-26 15:00:00 28.2 26 Sudeste 39 Sudeste 0 -- -- 47
2020-06-26 14:00:00 28.3 23 Sudeste 33 Sudeste 0 -- -- 47
2020-06-26 13:00:00 29.9 18 Sudeste 30 Sudeste 0 -- -- 43
2020-06-26 12:00:00 29.7 22 Sudeste 32 Sudeste 0 -- -- 40
2020-06-26 11:00:00 29.1 14 Sudeste 28 Este 0 -- -- 47
2020-06-26 10:00:00 29.9 13 Este 23 Sudeste 0 -- -- 32
2020-06-26 09:00:00 27.8 13 Este 19 Este 0 -- -- 38
2020-06-26 08:00:00 25.8 10 Nordeste 17 Nordeste 0 -- -- 38
2020-06-26 07:00:00 21.5 10 Nordeste 19 Nordeste 0 -- -- 46
2020-06-26 06:00:00 21 12 Nordeste 20 Nordeste 0 -- -- 48
2020-06-26 05:00:00 21.3 13 Nordeste 22 Nordeste 0 -- -- 49
2020-06-26 04:00:00 21.3 14 Nordeste 20 Nordeste 0 -- -- 53
2020-06-26 03:00:00 21.5 13 Nordeste 22 Nordeste 0 -- -- 53
2020-06-26 02:00:00 22.1 10 Este 17 Este 0 -- -- 51
2020-06-26 01:00:00 22.3 10 Nordeste 17 Nordeste 0 -- -- 50
2020-06-26 00:00:00 22.7 12 Nordeste 19 Nordeste 0 -- -- 51
2020-06-25 23:00:00 23.4 12 Nordeste 21 Nordeste 0 -- -- 49
2020-06-25 22:00:00 24.4 15 Nordeste 24 Nordeste 0 -- -- 47
2020-06-25 21:00:00 26.2 14 Este 29 Este 0 -- -- 41
2020-06-25 20:00:00 28.2 20 Este 36 Este 0 -- -- 37
2020-06-25 19:00:00 28.5 26 Sudeste 41 Este 0 -- -- 40
2020-06-25 18:00:00 29.3 24 Sudeste 39 Sudeste 0 -- -- 39
2020-06-25 17:00:00 30.2 26 Sudeste 40 Sudeste 0 -- -- 38
2020-06-25 16:00:00 30.7 20 Sudeste 37 Sudeste 0 -- -- 36
2020-06-25 15:00:00 32.2 22 Sudeste 39 Sudeste 0 -- -- 32
2020-06-25 14:00:00 31.8 21 Sudeste 39 Sudeste 0 -- -- 31
2020-06-25 13:00:00 30.7 18 Sudeste 39 Este 0 -- -- 37
2020-06-25 12:00:00 30.1 23 Sudeste 37 Sudeste 0 -- -- 37
2020-06-25 11:00:00 29.8 15 Sudeste 33 Este 0 -- -- 38
2020-06-25 10:00:00 29.5 18 Este 27 Este 0 -- -- 33
2020-06-25 09:00:00 27.8 15 Este 26 Este 0 -- -- 41
2020-06-25 08:00:00 24.9 13 Nordeste 21 Nordeste 0 -- -- 47
2020-06-25 07:00:00 21.1 13 Nordeste 19 Nordeste 0 -- -- 52
2020-06-25 06:00:00 21.1 9 Nordeste 14 Nordeste 0 -- -- 50
2020-06-25 05:00:00 21.4 10 Nordeste 19 Nordeste 0 -- -- 52
2020-06-25 04:00:00 21.5 13 Nordeste 23 Este 0 -- -- 55
2020-06-25 03:00:00 21.8 14 Este 18 Este 0 -- -- 53
2020-06-25 02:00:00 21.5 9 Nordeste 14 Nordeste 0 -- -- 52
2020-06-25 01:00:00 21.7 10 Nordeste 20 Este 0 -- -- 52
2020-06-25 00:00:00 21.8 11 Este 16 Este 0 -- -- 54
2020-06-24 23:00:00 22.6 10 Nordeste 19 Este 0 -- -- 68
2020-06-24 22:00:00 22.9 10 Este 16 Sudeste 0 -- -- 67
2020-06-24 21:00:00 24.6 9 Sudeste 20 Sudeste 0 -- -- 62
2020-06-24 20:00:00 26.3 11 Sudeste 19 Sudeste 0 -- -- 58
2020-06-24 19:00:00 28.9 12 Sudeste 23 Sudeste 0 -- -- 42
2020-06-24 18:00:00 30.1 13 Sudeste 19 Sudeste 0 -- -- 32
2020-06-24 17:00:00 29.8 12 Sudeste 19 Sudeste 0 -- -- 33
2020-06-24 16:00:00 29.2 14 Sudeste 26 Sur 0 -- -- 38
2020-06-24 15:00:00 30 15 Sudeste 30 Sudeste 0 -- -- 34
2020-06-24 14:00:00 29.4 18 Sudeste 29 Sudeste 0 -- -- 36
2020-06-24 13:00:00 28.6 17 Sudeste 27 Este 0 -- -- 53
2020-06-24 12:00:00 29.1 13 Sudeste 21 Sudeste 0 -- -- 45
2020-06-24 11:00:00 28.9 12 Este 24 Este 0 -- -- 41
2020-06-24 10:00:00 28.6 13 Este 23 Este 0 -- -- 42
2020-06-24 09:00:00 26.7 9 Este 23 Este 0 -- -- 49
2020-06-24 08:00:00 23.3 15 Este 23 Nordeste 0 -- -- 61
2020-06-24 07:00:00 19 13 Nordeste 21 Nordeste 0 -- -- 72
2020-06-24 06:00:00 19.6 12 Nordeste 16 Nordeste 0 -- -- 70
2020-06-24 05:00:00 19.1 10 Nordeste 17 Nordeste 0 -- -- 75
2020-06-24 04:00:00 19.7 12 Nordeste 19 Nordeste 0 -- -- 75
2020-06-24 03:00:00 19.7 12 Nordeste 16 Nordeste 0 -- -- 83
2020-06-24 02:00:00 19.7 9 Nordeste 15 Nordeste 0 -- -- 88
2020-06-24 01:00:00 20.3 10 Nordeste 15 Nordeste 0 -- -- 86
2020-06-24 00:00:00 20.8 9 Este 14 Este 0 -- -- 85
2020-06-23 23:00:00 21.6 7 Este 18 Sudeste 0 -- -- 82
2020-06-23 22:00:00 22.6 10 Sudeste 14 Este 0 -- -- 79
2020-06-23 21:00:00 24.9 5 Sudeste 14 Sudeste 0 -- -- 63
2020-06-23 20:00:00 26.1 9 Sudeste 17 Sudeste 0 -- -- 56
2020-06-23 19:00:00 26.7 10 Sudeste 18 Este 0 -- -- 58
2020-06-23 18:00:00 27 11 Sur 19 Sur 0 -- -- 57
2020-06-23 17:00:00 28.2 10 Sudoeste 17 Sur 0 -- -- 58
2020-06-23 16:00:00 27.8 10 Sudoeste 19 Oeste 0 -- -- 59
2020-06-23 15:00:00 27.5 10 Sudoeste 21 Oeste 0 -- -- 61
2020-06-23 14:00:00 26.8 10 Sudoeste 20 Oeste 0 -- -- 63
2020-06-23 13:00:00 27.2 12 Sudoeste 20 Oeste 0 -- -- 61
2020-06-23 12:00:00 26.7 13 Sudoeste 20 Sudoeste 0 -- -- 67
2020-06-23 11:00:00 26.9 10 Sudoeste 15 Sudoeste 0 -- -- 63
2020-06-23 10:00:00 26.1 8 Sudoeste 14 Sur 0 -- -- 67
2020-06-23 09:00:00 26.7 5 Oeste 9 Noroeste 0 -- -- 62
2020-06-23 08:00:00 24.6 0 Calma 5 Norte 0 -- -- 72
2020-06-23 07:00:00 19.4 5 Norte 7 Norte 0 -- -- 89
2020-06-23 06:00:00 19.3 6 Norte 8 Norte 0 -- -- 89
2020-06-23 05:00:00 19.6 6 Norte 7 Norte 0 -- -- 87
2020-06-23 04:00:00 20 5 Norte 8 Noroeste 0 -- -- 87
2020-06-23 03:00:00 19.8 6 Norte 8 Norte 0 -- -- 86
2020-06-23 02:00:00 19.9 6 Norte 6 Norte 0 -- -- 85
2020-06-23 01:00:00 20.2 0 Calma -- -- 0 -- -- 83
2020-06-23 00:00:00 20.8 0 Calma -- -- 0 -- -- 81
2020-06-22 23:00:00 21.4 0 Calma 4 Oeste 0 -- -- 77
2020-06-22 22:00:00 22.4 2 Sudoeste 9 Sudoeste 0 -- -- 73
2020-06-22 21:00:00 24.7 5 Sudoeste 16 Sudoeste 0 -- -- 66
2020-06-22 20:00:00 26.2 10 Sudoeste 18 Sudoeste 0 -- -- 63
2020-06-22 19:00:00 27.5 10 Sudoeste 19 Oeste 0 -- -- 59
2020-06-22 18:00:00 27.9 12 Sudoeste 21 Sudoeste 0 -- -- 57
2020-06-22 17:00:00 28.4 13 Sudoeste 23 Sudoeste 0 -- -- 55
2020-06-22 16:00:00 27.9 14 Oeste 24 Oeste 0 -- -- 57
2020-06-22 15:00:00 27.4 15 Oeste 24 Oeste 0 -- -- 59
2020-06-22 14:00:00 27.1 15 Oeste 26 Oeste 0 -- -- 63
2020-06-22 13:00:00 27.3 15 Oeste 23 Oeste 0 -- -- 61
2020-06-22 12:00:00 27.5 12 Sudoeste 21 Sudoeste 0 -- -- 60
2020-06-22 11:00:00 29 7 Sudeste 24 Este 0 -- -- 49
2020-06-22 10:00:00 27.8 10 Sudeste 19 Sudeste 0 -- -- 49
2020-06-22 09:00:00 26.4 9 Sudeste 14 Este 0 -- -- 55
2020-06-22 08:00:00 24.2 4 Este 8 Este 0 -- -- 69
2020-06-22 07:00:00 19.2 7 Nordeste 10 Nordeste 0 -- -- 88
2020-06-22 06:00:00 19.2 6 Nordeste 8 Nordeste 0 -- -- 89
2020-06-22 05:00:00 20 5 Noroeste 9 Noroeste 0 -- -- 89
2020-06-22 04:00:00 19.9 6 Noroeste 6 Noroeste 0 -- -- 83
2020-06-22 03:00:00 19.3 4 Nordeste 10 Este 0 -- -- 83
2020-06-22 02:00:00 19.4 8 Este 10 Nordeste 0 -- -- 88
2020-06-22 01:00:00 20.1 4 Nordeste 10 Nordeste 0 -- -- 88
2020-06-22 00:00:00 20.8 0 Calma 14 Oeste 0 -- -- 85
2020-06-21 23:00:00 21.4 7 Oeste 15 Sudoeste 0 -- -- 84
2020-06-21 22:00:00 22 9 Sudoeste 13 Sudoeste 0 -- -- 74
2020-06-21 21:00:00 24 6 Sudoeste 12 Sudoeste 0 -- -- 65
2020-06-21 20:00:00 26 8 Sudoeste 17 Sudoeste 0 -- -- 62
2020-06-21 19:00:00 27.2 10 Sudoeste 19 Sudoeste 0 -- -- 57
2020-06-21 18:00:00 27.2 11 Sudoeste 17 Oeste 0 -- -- 55
2020-06-21 17:00:00 27.3 12 Sudoeste 19 Sudoeste 0 -- -- 53
2020-06-21 16:00:00 27 14 Sudoeste 21 Sudoeste 0 -- -- 52
2020-06-21 15:00:00 27.5 13 Sudoeste 18 Sur 0 -- -- 47
2020-06-21 14:00:00 27.4 12 Sudoeste 19 Sudoeste 0 -- -- 47
2020-06-21 13:00:00 27.8 12 Sudoeste 20 Sudoeste 0 -- -- 46
2020-06-21 12:00:00 27.2 13 Sudoeste 17 Oeste 0 -- -- 51
2020-06-21 11:00:00 27.6 9 Sudoeste 13 Sudoeste 0 -- -- 53
2020-06-21 10:00:00 26.8 7 Sudoeste 13 Sudoeste 0 -- -- 60
2020-06-21 09:00:00 26.8 2 Nordeste 9 Nordeste 0 -- -- 55
2020-06-21 08:00:00 22.2 4 Nordeste 8 Nordeste 0 -- -- 89
2020-06-21 07:00:00 18.6 0 Calma 9 Nordeste 0 -- -- 94
2020-06-21 06:00:00 17.3 8 Nordeste 10 Nordeste 0 -- -- 93
2020-06-21 05:00:00 17.8 6 Nordeste 10 Nordeste 0 -- -- 93
2020-06-21 04:00:00 18.4 8 Nordeste 10 Nordeste 0 -- -- 92
2020-06-21 03:00:00 19.6 0 Calma -- -- 0 -- -- 89
2020-06-21 02:00:00 19.8 0 Calma 5 Oeste 0 -- -- 89
2020-06-21 01:00:00 19.8 5 Noroeste 8 Oeste 0 -- -- 88
2020-06-21 00:00:00 20 5 Oeste 9 Oeste 0 -- -- 88
2020-06-20 23:00:00 20.4 6 Oeste 14 Oeste 0 -- -- 86
2020-06-20 22:00:00 20.9 9 Sudoeste 15 Sudoeste 0 -- -- 83
2020-06-20 21:00:00 22.3 8 Sudoeste 15 Sudoeste 0 -- -- 75
2020-06-20 20:00:00 24.7 8 Sudoeste 21 Sudoeste 0 -- -- 68
2020-06-20 19:00:00 25.3 13 Sudoeste 24 Sudoeste 0 -- -- 67
2020-06-20 18:00:00 26.2 14 Sudoeste 24 Sudoeste 0 -- -- 65
2020-06-20 17:00:00 26.4 15 Oeste 28 Sudoeste 0 -- -- 65
2020-06-20 16:00:00 26.1 19 Sudoeste 29 Sudoeste 0 -- -- 64
2020-06-20 15:00:00 26.1 16 Sudoeste 22 Sudoeste 0 -- -- 63
2020-06-20 14:00:00 25.7 15 Sudoeste 24 Sudoeste 0 -- -- 70
2020-06-20 13:00:00 25.5 14 Sudoeste 22 Sudoeste 0 -- -- 71
2020-06-20 12:00:00 24.6 14 Sudoeste 19 Sudoeste 0 -- -- 73
2020-06-20 11:00:00 24.8 12 Sudoeste 20 Sudoeste 0 -- -- 74
2020-06-20 10:00:00 25.3 10 Sudoeste 16 Sur 0 -- -- 67
2020-06-20 09:00:00 25.5 5 Sudoeste 9 Sur 0 -- -- 68
2020-06-20 08:00:00 22.5 2 Nordeste 5 Nordeste 0 -- -- 83
2020-06-20 07:00:00 18.9 0 Calma 5 Oeste 0 -- -- 89
2020-06-20 06:00:00 19.4 5 Oeste 9 Sudoeste 0 -- -- 90
2020-06-20 05:00:00 19.3 5 Oeste 10 Oeste 0 -- -- 90
2020-06-20 04:00:00 19.7 6 Oeste 12 Oeste 0 -- -- 90
2020-06-20 03:00:00 19.5 6 Oeste 13 Oeste 0 -- -- 89
2020-06-20 02:00:00 19.7 6 Oeste 11 Oeste 0 -- -- 89
2020-06-20 01:00:00 19.8 5 Oeste 11 Oeste 0 -- -- 86
2020-06-20 00:00:00 20 6 Oeste 11 Sudoeste 0 -- -- 84
2020-06-19 23:00:00 20.1 6 Sudoeste 13 Sudoeste 0 -- -- 82
2020-06-19 22:00:00 20.6 8 Sur 14 Sur 0 -- -- 80
2020-06-19 21:00:00 21.5 8 Sur 18 Sur 0 -- -- 73
2020-06-19 20:00:00 22.9 12 Sur 21 Sudeste 0 -- -- 69
2020-06-19 19:00:00 23.7 15 Sur 23 Sur 0 -- -- 65
2020-06-19 18:00:00 24.3 15 Sur 28 Sur 0 -- -- 62
2020-06-19 17:00:00 25 19 Sur 29 Sudeste 0 -- -- 59
2020-06-19 16:00:00 25.2 20 Sudeste 30 Sudeste 0 -- -- 57
2020-06-19 15:00:00 26.2 18 Sudeste 30 Este 0 -- -- 56
2020-06-19 14:00:00 27.4 14 Sudeste 26 Sudeste 0 -- -- 53
2020-06-19 13:00:00 27.2 14 Este 27 Este 0 -- -- 55
2020-06-19 12:00:00 23.4 15 Este 26 Este 0 -- -- 77
2020-06-19 11:00:00 21.1 10 Nordeste 16 Nordeste 0 -- -- 87
2020-06-19 10:00:00 20.4 7 Nordeste 13 Nordeste 0.6 -- -- 85
2020-06-19 09:00:00 21.6 6 Nordeste 15 Nordeste 0 -- -- 79
2020-06-19 08:00:00 20.7 8 Nordeste 13 Nordeste 0 -- -- 85
2020-06-19 07:00:00 19.3 9 Nordeste 16 Nordeste 0 -- -- 88
2020-06-19 06:00:00 18.9 8 Este 12 Este 0 -- -- 86
2020-06-19 05:00:00 18.9 7 Norte 14 Norte 0 -- -- 85
2020-06-19 04:00:00 19 8 Nordeste 12 Nordeste 0 -- -- 84
2020-06-19 03:00:00 19.2 8 Norte 24 Este 0 -- -- 86
2020-06-19 02:00:00 19.4 8 Nordeste 14 Norte 0 -- -- 88
2020-06-19 01:00:00 19.8 11 Este 19 Nordeste 0 -- -- 86
2020-06-19 00:00:00 19.8 5 Nordeste 14 Este 0 -- -- 85
2020-06-18 23:00:00 20.3 5 Este 16 Este 0 -- -- 82
2020-06-18 22:00:00 21 8 Este 23 Este 0 -- -- 80
2020-06-18 21:00:00 21.7 17 Este 32 Sudeste 0 -- -- 77
2020-06-18 20:00:00 22.9 22 Sudeste 31 Sudeste 0 -- -- 73
2020-06-18 19:00:00 23.4 19 Sudeste 33 Sudeste 0 -- -- 72
2020-06-18 18:00:00 24.9 16 Sudeste 26 Sur 0 -- -- 67
2020-06-18 17:00:00 25.2 15 Sudeste 25 Sudeste 0 -- -- 68
2020-06-18 16:00:00 26.2 13 Sur 22 Sur 0 -- -- 64
2020-06-18 15:00:00 25.2 13 Sur 21 Sudoeste 0 -- -- 66
2020-06-18 14:00:00 25 13 Sudoeste 19 Sudoeste 0 -- -- 65
2020-06-18 13:00:00 25.3 12 Sur 19 Sudoeste 0 -- -- 67
2020-06-18 12:00:00 24.6 12 Sudoeste 23 Sur 0 -- -- 68
2020-06-18 11:00:00 25.3 9 Sur 17 Sur 0 -- -- 65
2020-06-18 10:00:00 23.5 7 Sudeste 19 Sudeste 0 -- -- 72
2020-06-18 09:00:00 23.3 11 Sudeste 18 Sudeste 0 -- -- 77
2020-06-18 08:00:00 21.9 7 Este 13 Este 0 -- -- 88
2020-06-18 07:00:00 18.4 6 Este 11 Nordeste 0 -- -- 93
2020-06-18 06:00:00 17.9 7 Nordeste 10 Nordeste 0 -- -- 91
2020-06-18 05:00:00 18.6 6 Nordeste 11 Sudeste 0 -- -- 88
2020-06-18 04:00:00 20 7 Sudeste 13 Sudeste 0 -- -- 86
2020-06-18 03:00:00 20.7 8 Sudeste 15 Sudeste 0 -- -- 84
2020-06-18 02:00:00 20.7 7 Sudeste 13 Sudeste 0 -- -- 84
2020-06-18 01:00:00 20.9 8 Sudeste 15 Sudeste 0 -- -- 84
2020-06-18 00:00:00 20.9 5 Sudeste 12 Sudeste 0 -- -- 83
2020-06-17 23:00:00 20.9 7 Sudeste 15 Sur 0 -- -- 83
2020-06-17 22:00:00 21.3 10 Sudeste 15 Sudeste 0 -- -- 82
2020-06-17 21:00:00 21.6 8 Sudeste 14 Sudeste 0 -- -- 81
2020-06-17 20:00:00 23.4 9 Sur 17 Sur 0 -- -- 74
2020-06-17 19:00:00 25.1 9 Sudoeste 19 Sur 0 -- -- 68
2020-06-17 18:00:00 24.9 12 Sur 22 Sur 0 -- -- 68
2020-06-17 17:00:00 25.3 12 Sur 22 Sur 0 -- -- 68
2020-06-17 16:00:00 25 14 Sur 24 Sur 0 -- -- 68
2020-06-17 15:00:00 24.4 16 Sur 28 Sudeste 0 -- -- 69
2020-06-17 14:00:00 24.6 17 Sudeste 26 Sur 0 -- -- 68
2020-06-17 13:00:00 24.5 16 Sudeste 27 Sudeste 0 -- -- 67
2020-06-17 12:00:00 24.5 15 Sudeste 24 Sur 0 -- -- 68
2020-06-17 11:00:00 25.3 13 Sudeste 24 Sudeste 0 -- -- 59
2020-06-17 10:00:00 24.1 11 Este 24 Este 0 -- -- 65
2020-06-17 09:00:00 22 14 Este 23 Este 0 -- -- 77
2020-06-17 08:00:00 19.4 12 Este 24 Este 0 -- -- 90
2020-06-17 07:00:00 17.4 9 Nordeste 17 Nordeste 0 -- -- 92
2020-06-17 06:00:00 17.2 11 Nordeste 17 Nordeste 0 -- -- 91
2020-06-17 05:00:00 17.7 9 Este 15 Nordeste 0 -- -- 90
2020-06-17 04:00:00 17.6 10 Nordeste 15 Nordeste 0 -- -- 89
2020-06-17 03:00:00 18 9 Norte 14 Norte 0 -- -- 88
2020-06-17 02:00:00 18.4 9 Norte 14 Norte 0 -- -- 88
2020-06-17 01:00:00 19.2 7 Noroeste 10 Norte 0 -- -- 85
2020-06-17 00:00:00 20 3 Nordeste 7 Oeste 0 -- -- 81
2020-06-16 23:00:00 20.6 5 Oeste 14 Sudoeste 0 -- -- 83
2020-06-16 22:00:00 20.8 8 Sudoeste 14 Oeste 0 -- -- 81
2020-06-16 21:00:00 22.2 5 Oeste 12 Oeste 0 -- -- 74
2020-06-16 20:00:00 23.8 11 Oeste 20 Oeste 0 -- -- 69
2020-06-16 19:00:00 25.3 12 Sudoeste 21 Sudoeste 0 -- -- 66
2020-06-16 18:00:00 25.5 12 Oeste 21 Sudoeste 0 -- -- 64
2020-06-16 17:00:00 25.5 12 Sudoeste 21 Sudoeste 0 -- -- 64
2020-06-16 16:00:00 24.6 14 Sur 25 Sur 0 -- -- 67
2020-06-16 15:00:00 25 15 Sur 29 Sudeste 0 -- -- 65
2020-06-16 14:00:00 24.8 15 Sur 27 Sudoeste 0 -- -- 70
2020-06-16 13:00:00 24.2 19 Sur 25 Sur 0 -- -- 70
2020-06-16 12:00:00 24.5 17 Sur 23 Sur 0 -- -- 72
2020-06-16 11:00:00 24.6 9 Sudeste 18 Sur 0 -- -- 70
2020-06-16 10:00:00 23.1 8 Este 14 Sudeste 0 -- -- 78
2020-06-16 09:00:00 21.3 6 Este 14 Este 0 -- -- 93
2020-06-16 08:00:00 19.5 6 Este 14 Este 0 -- -- 96
2020-06-16 07:00:00 18.4 8 Este 15 Este 0 -- -- 97
2020-06-16 06:00:00 18.3 9 Este 16 Este 0 -- -- 97
2020-06-16 05:00:00 18.6 6 Nordeste 11 Nordeste 0 -- -- 96
2020-06-16 04:00:00 18.5 7 Nordeste 12 Nordeste 0 -- -- 96
2020-06-16 03:00:00 19 5 Este 8 Nordeste 0 -- -- 94
2020-06-16 02:00:00 19.8 5 Sudoeste 9 Oeste 0 -- -- 94
2020-06-16 01:00:00 19.9 6 Sudoeste 9 Sudoeste 0 -- -- 93
2020-06-16 00:00:00 19.6 2 Noroeste 6 Oeste 0 -- -- 92
2020-06-15 23:00:00 20 4 Oeste 10 Oeste 0 -- -- 90
2020-06-15 22:00:00 20.3 5 Oeste 15 Sudoeste 0 -- -- 88
2020-06-15 21:00:00 21.4 9 Oeste 15 Sudoeste 0 -- -- 83
2020-06-15 20:00:00 23.3 10 Sudoeste 21 Sudoeste 0 -- -- 76
2020-06-15 19:00:00 25.1 12 Sudoeste 21 Sudoeste 0 -- -- 69
2020-06-15 18:00:00 25.7 13 Sudoeste 21 Sudoeste 0 -- -- 65
2020-06-15 17:00:00 25.8 13 Sudoeste 21 Sur 0 -- -- 63
2020-06-15 16:00:00 25.5 12 Sudoeste 19 Sudoeste 0 -- -- 63
2020-06-15 15:00:00 24.8 12 Sudoeste 19 Sur 0 -- -- 65
2020-06-15 14:00:00 24.5 12 Sudoeste 18 Sudoeste 0 -- -- 67
2020-06-15 13:00:00 24.7 10 Sudoeste 18 Sudoeste 0 -- -- 64
2020-06-15 12:00:00 23.7 14 Sur 20 Sudoeste 0 -- -- 67
2020-06-15 11:00:00 23.1 12 Sur 19 Sur 0 -- -- 73
2020-06-15 10:00:00 23.5 12 Sur 16 Sur 0 -- -- 71
2020-06-15 09:00:00 22.4 7 Sudoeste 11 Sur 0 -- -- 80
2020-06-15 08:00:00 20.7 4 Nordeste 10 Nordeste 0 -- -- 90
2020-06-15 07:00:00 17.9 5 Nordeste 8 Nordeste 0 -- -- 91
2020-06-15 06:00:00 18.7 4 Sudoeste 13 Sudoeste 0 -- -- 91
2020-06-15 05:00:00 18.7 9 Oeste 14 Oeste 0 -- -- 89
2020-06-15 04:00:00 19.2 10 Sudoeste 17 Sudoeste 0 -- -- 89
2020-06-15 03:00:00 19.1 10 Sudoeste 16 Sudoeste 0 -- -- 87
2020-06-15 02:00:00 19.1 9 Sudoeste 15 Sudoeste 0 -- -- 84
2020-06-15 01:00:00 18.6 7 Sudoeste 14 Sudoeste 0 -- -- 86
2020-06-15 00:00:00 18.9 6 Sudoeste 12 Sudoeste 0 -- -- 85
2020-06-14 23:00:00 19.1 6 Sudoeste 11 Sudoeste 0 -- -- 83
2020-06-14 22:00:00 19.5 7 Sudoeste 15 Sudoeste 0 -- -- 81
2020-06-14 21:00:00 21.2 9 Sudoeste 20 Oeste 0 -- -- 74
2020-06-14 20:00:00 23.4 11 Sudoeste 22 Sudoeste 0 -- -- 67
2020-06-14 19:00:00 24.2 12 Sudoeste 22 Sudoeste 0 -- -- 64
2020-06-14 18:00:00 24.7 13 Sudoeste 19 Sudoeste 0 -- -- 64
2020-06-14 17:00:00 25.6 13 Sudoeste 21 Sudoeste 0 -- -- 60
2020-06-14 16:00:00 24.9 12 Sudoeste 21 Sudoeste 0 -- -- 63
2020-06-14 15:00:00 23.4 10 Sudoeste 18 Sudoeste 0 -- -- 66
2020-06-14 14:00:00 24.6 13 Sudoeste 19 Sudoeste 0 -- -- 62
2020-06-14 13:00:00 23.3 11 Sudoeste 19 Sudoeste 0 -- -- 65
2020-06-14 12:00:00 24.9 11 Sudoeste 19 Sudoeste 0 -- -- 60
2020-06-14 11:00:00 24.6 10 Sudoeste 14 Sudoeste 0 -- -- 62
2020-06-14 10:00:00 24 9 Sur 13 Sudoeste 0 -- -- 62
2020-06-14 09:00:00 24.2 7 Sudoeste 11 Sur 0 -- -- 64
2020-06-14 08:00:00 21.3 6 Nordeste 18 Nordeste 0 -- -- 81
2020-06-14 07:00:00 17.2 3 Oeste 6 Nordeste 0 -- -- 89
2020-06-14 06:00:00 17 0 Calma 8 Nordeste 0 -- -- 87
2020-06-14 05:00:00 17.9 5 Noroeste 17 Oeste 0 -- -- 83
2020-06-14 04:00:00 19.2 12 Oeste 21 Oeste 0 -- -- 80
2020-06-14 03:00:00 19.5 13 Oeste 20 Oeste 0 -- -- 80
2020-06-14 02:00:00 19.4 10 Oeste 20 Oeste 0 -- -- 79
2020-06-14 01:00:00 19.6 11 Oeste 22 Oeste 0 -- -- 77
2020-06-14 00:00:00 20 14 Oeste 23 Oeste 0 -- -- 73
2020-06-13 23:00:00 20 14 Oeste 22 Oeste 0 -- -- 70
2020-06-13 22:00:00 19.9 11 Oeste 26 Oeste 0 -- -- 66
2020-06-13 21:00:00 21 11 Oeste 21 Oeste 0 -- -- 59
2020-06-13 20:00:00 23.1 12 Oeste 22 Oeste 0 -- -- 55
2020-06-13 19:00:00 23.5 15 Oeste 31 Oeste 0 -- -- 58
2020-06-13 18:00:00 24.2 18 Oeste 35 Oeste 0 -- -- 53
2020-06-13 17:00:00 24.7 17 Oeste 33 Oeste 0 -- -- 49
2020-06-13 16:00:00 24.5 19 Oeste 35 Oeste 0 -- -- 50
2020-06-13 15:00:00 24.2 19 Oeste 35 Oeste 0 -- -- 51
2020-06-13 14:00:00 24.1 22 Oeste 37 Oeste 0 -- -- 59
2020-06-13 13:00:00 24.1 23 Oeste 37 Oeste 0 -- -- 64
2020-06-13 12:00:00 24.2 19 Oeste 35 Oeste 0 -- -- 63
2020-06-13 11:00:00 24.3 17 Oeste 32 Oeste 0 -- -- 61
2020-06-13 10:00:00 24.1 17 Oeste 30 Oeste 0 -- -- 56
2020-06-13 09:00:00 22.5 18 Noroeste 26 Noroeste 0 -- -- 62
2020-06-13 08:00:00 22.1 8 Oeste 20 Oeste 0 -- -- 85
2020-06-13 07:00:00 19.8 13 Oeste 19 Sudoeste 0 -- -- 87
2020-06-13 06:00:00 19.3 9 Sudoeste 16 Sudoeste 0 -- -- 87
2020-06-13 05:00:00 19.5 9 Sudoeste 17 Sudoeste 0 -- -- 87
2020-06-13 04:00:00 19.6 11 Sur 21 Sur 0 -- -- 88
2020-06-13 03:00:00 19.5 17 Sur 26 Sudeste 0 -- -- 88
2020-06-13 02:00:00 19.3 18 Sur 27 Sur 0 -- -- 88
2020-06-13 01:00:00 18.9 13 Sur 16 Sur 0 -- -- 88
2020-06-13 00:00:00 18.9 6 Sudeste 15 Sur 0 -- -- 85
2020-06-12 23:00:00 19.4 8 Sudoeste 17 Sudoeste 0 -- -- 84
2020-06-12 22:00:00 19.7 11 Oeste 18 Sudoeste 0 -- -- 82
2020-06-12 21:00:00 20.7 12 Sudoeste 23 Sudoeste 0 -- -- 79
2020-06-12 20:00:00 22 13 Sudoeste 26 Sudoeste 0 -- -- 73
2020-06-12 19:00:00 23.7 16 Sudoeste 29 Sudoeste 0 -- -- 69
2020-06-12 18:00:00 23.5 19 Sudoeste 32 Sudoeste 0 -- -- 69
2020-06-12 17:00:00 25.8 12 Sudoeste 21 Sudoeste 0 -- -- 54
2020-06-12 16:00:00 25.6 14 Sudoeste 24 Oeste 0 -- -- 51
2020-06-12 15:00:00 25.4 15 Oeste 25 Sudoeste 0 -- -- 53
2020-06-12 14:00:00 25 13 Oeste 30 Oeste 0 -- -- 54
2020-06-12 13:00:00 24.8 19 Oeste 31 Oeste 0 -- -- 53
2020-06-12 12:00:00 25.1 21 Oeste 33 Oeste 0 -- -- 55
2020-06-12 11:00:00 24.4 21 Oeste 38 Oeste 0 -- -- 75
2020-06-12 10:00:00 24.9 18 Sudoeste 34 Oeste 0 -- -- 67
2020-06-12 09:00:00 23.9 19 Oeste 36 Oeste 0 -- -- 72
2020-06-12 08:00:00 22.3 15 Sudoeste 32 Sudoeste 0 -- -- 86
2020-06-12 07:00:00 20.1 15 Sudoeste 31 Sudoeste 0 -- -- 89
2020-06-12 06:00:00 19.9 14 Sudoeste 30 Sudoeste 0 -- -- 86
2020-06-12 05:00:00 20.1 17 Sur 28 Sur 0 -- -- 82
2020-06-12 04:00:00 20.2 19 Sudoeste 35 Sur 0 -- -- 79
2020-06-12 03:00:00 20.1 19 Sur 36 Sur 0 -- -- 79
2020-06-12 02:00:00 20 19 Sur 35 Sur 0 -- -- 77
2020-06-12 01:00:00 20.1 22 Sur 33 Sur 0 -- -- 75
2020-06-12 00:00:00 20.1 20 Sur 30 Sudoeste 0 -- -- 74
2020-06-11 23:00:00 19.9 14 Sur 22 Sur 0 -- -- 78
2020-06-11 22:00:00 19.9 12 Sudoeste 20 Sudoeste 0 -- -- 83
2020-06-11 21:00:00 20.7 10 Sudoeste 19 Sur 0 -- -- 83
2020-06-11 20:00:00 21.5 12 Sur 24 Sur 0 -- -- 80
2020-06-11 19:00:00 22.9 16 Sur 26 Sur 0 -- -- 75
2020-06-11 18:00:00 23.4 14 Sur 26 Sur 0 -- -- 71
2020-06-11 17:00:00 22.9 17 Sur 28 Sur 0 -- -- 72
2020-06-11 16:00:00 24.2 18 Sur 31 Sur 0 -- -- 67
2020-06-11 15:00:00 24.7 15 Sudoeste 27 Sur 0 -- -- 66
2020-06-11 14:00:00 24 17 Sudoeste 29 Sur 0 -- -- 70
2020-06-11 13:00:00 23.4 19 Sur 32 Sur 0 -- -- 71
2020-06-11 12:00:00 24.2 17 Sudoeste 27 Sudoeste 0 -- -- 66
2020-06-11 11:00:00 22.6 15 Sur 26 Sur 0 -- -- 75
2020-06-11 10:00:00 21.8 17 Sur 25 Sur 0 -- -- 79
2020-06-11 09:00:00 20.1 14 Sur 23 Sur 0 -- -- 82
2020-06-11 08:00:00 19.7 12 Sur 18 Sur 0 -- -- 83
2020-06-11 07:00:00 19.3 8 Sur 15 Sur 0 -- -- 85
2020-06-11 06:00:00 19.2 10 Sur 19 Sur 0 -- -- 84
2020-06-11 05:00:00 19.2 11 Sur 21 Sur 0 -- -- 85
2020-06-11 04:00:00 19.1 12 Sur 18 Sudeste 0 -- -- 87
2020-06-11 03:00:00 19.4 6 Oeste 12 Sudoeste 0 -- -- 86
2020-06-11 02:00:00 19.1 6 Sudoeste 15 Sudoeste 0 -- -- 85
2020-06-11 01:00:00 19.4 8 Sudoeste 17 Oeste 0 -- -- 83
2020-06-11 00:00:00 19.5 8 Sudoeste 18 Sudoeste 0 -- -- 83
2020-06-10 23:00:00 19.4 9 Sudoeste 18 Sudoeste 0 -- -- 83
2020-06-10 22:00:00 19.7 8 Sudoeste 17 Sudoeste 0 -- -- 81
2020-06-10 21:00:00 20 9 Sudoeste 17 Sudoeste 0 -- -- 77
2020-06-10 20:00:00 21.2 10 Sudoeste 20 Sudoeste 0 -- -- 70
2020-06-10 19:00:00 22.8 12 Sudoeste 21 Sudoeste 0 -- -- 66
2020-06-10 18:00:00 22.1 12 Sudoeste 24 Sudoeste 0 -- -- 65
2020-06-10 17:00:00 23.9 14 Sudoeste 24 Sudoeste 0 -- -- 59
2020-06-10 16:00:00 25 13 Sudoeste 23 Oeste 0 -- -- 57
2020-06-10 15:00:00 24.6 13 Sudoeste 22 Oeste 0 -- -- 59
2020-06-10 14:00:00 24.1 11 Sudoeste 19 Sudoeste 0 -- -- 61
2020-06-10 13:00:00 23.3 10 Sur 18 Sudoeste 0 -- -- 61
2020-06-10 12:00:00 23.2 10 Sudoeste 16 Sur 0 -- -- 62
2020-06-10 11:00:00 21.9 7 Sudoeste 17 Sudoeste 0 -- -- 64
2020-06-10 10:00:00 23.4 9 Oeste 15 Oeste 0 -- -- 54
2020-06-10 09:00:00 21.3 3 Oeste 7 Noroeste 0 -- -- 63
2020-06-10 08:00:00 20.3 3 Noroeste 6 Sudoeste 0 -- -- 68
2020-06-10 07:00:00 16.3 4 Oeste 7 Norte 0 -- -- 73
2020-06-10 06:00:00 15 6 Norte 9 Norte 0 -- -- 75
2020-06-10 05:00:00 14.9 6 Norte 10 Norte 0 -- -- 78
2020-06-10 04:00:00 15.6 6 Norte 9 Noroeste 0 -- -- 82
2020-06-10 03:00:00 16.2 7 Noroeste 10 Oeste 0 -- -- 80
2020-06-10 02:00:00 16.6 8 Noroeste 14 Oeste 0 -- -- 77
2020-06-10 01:00:00 17.3 9 Oeste 13 Noroeste 0 -- -- 72
2020-06-10 00:00:00 17.7 8 Oeste 14 Oeste 0 -- -- 70
2020-06-09 23:00:00 17.9 9 Oeste 15 Oeste 0 -- -- 68
2020-06-09 22:00:00 17.9 6 Oeste 14 Oeste 0 -- -- 67
2020-06-09 21:00:00 19.6 8 Oeste 17 Oeste 0 -- -- 60
2020-06-09 20:00:00 21.6 10 Oeste 19 Oeste 0 -- -- 54
2020-06-09 19:00:00 22 13 Oeste 23 Oeste 0 -- -- 55
2020-06-09 18:00:00 22.9 14 Oeste 24 Oeste 0 -- -- 55
2020-06-09 17:00:00 22.7 14 Oeste 25 Sudoeste 0 -- -- 56
2020-06-09 16:00:00 22.6 14 Oeste 26 Oeste 0 -- -- 59
2020-06-09 15:00:00 22.9 16 Oeste 25 Oeste 0 -- -- 59
2020-06-09 14:00:00 23.5 15 Oeste 24 Oeste 0 -- -- 57
2020-06-09 13:00:00 23 13 Sudoeste 19 Sudoeste 0 -- -- 59
2020-06-09 12:00:00 22.7 11 Sudoeste 17 Oeste 0 -- -- 56
2020-06-09 11:00:00 22.8 10 Sudoeste 17 Oeste 0 -- -- 59
2020-06-09 10:00:00 23.3 8 Sudoeste 12 Sudoeste 0 -- -- 56
2020-06-09 09:00:00 21.9 3 Noroeste 9 Norte 0 -- -- 60
2020-06-09 08:00:00 19.3 4 Norte 9 Norte 0 -- -- 73
2020-06-09 07:00:00 14.6 8 Norte 12 Noroeste 0 -- -- 90
2020-06-09 06:00:00 13.6 6 Norte 10 Norte 0 -- -- 92
2020-06-09 05:00:00 14 5 Norte 9 Noroeste 0 -- -- 91
2020-06-09 04:00:00 14.9 7 Noroeste 13 Norte 0 -- -- 90
2020-06-09 03:00:00 14.1 9 Norte 15 Norte 0 -- -- 91
2020-06-09 02:00:00 14.7 9 Norte 14 Norte 0 -- -- 90
2020-06-09 01:00:00 14.7 7 Norte 9 Norte 0 -- -- 91
2020-06-09 00:00:00 15 8 Norte 11 Norte 0 -- -- 90
2020-06-08 23:00:00 15.7 6 Nordeste 9 Nordeste 0 -- -- 87
2020-06-08 22:00:00 16.4 5 Norte 8 Nordeste 0 -- -- 85
2020-06-08 21:00:00 17.5 4 Nordeste 14 Este 0 -- -- 80
2020-06-08 20:00:00 18.5 8 Este 13 Este 0 -- -- 81
2020-06-08 19:00:00 18.3 7 Este 14 Nordeste 0 -- -- 81
2020-06-08 18:00:00 18.8 9 Nordeste 15 Nordeste 0 -- -- 85
2020-06-08 17:00:00 17.1 9 Norte 18 Norte 0 -- -- 86
2020-06-08 16:00:00 18.4 10 Norte 15 Norte 0.2 -- -- 85
2020-06-08 15:00:00 17.4 9 Nordeste 14 Nordeste 0 -- -- 88
2020-06-08 14:00:00 17.2 10 Nordeste 17 Nordeste 2 -- -- 87
2020-06-08 13:00:00 18.8 6 Este 11 Este 0.4 -- -- 74
2020-06-08 12:00:00 20.8 7 Sudeste 19 Sudeste 0 -- -- 64
2020-06-08 11:00:00 21.1 10 Este 26 Este 0 -- -- 63
2020-06-08 10:00:00 21.5 16 Este 27 Este 0 -- -- 65
2020-06-08 09:00:00 18.5 11 Nordeste 17 Nordeste 0 -- -- 91
2020-06-08 08:00:00 17.8 9 Nordeste 14 Nordeste 0 -- -- 95
2020-06-08 07:00:00 14.4 10 Nordeste 16 Nordeste 0 -- -- 98
2020-06-08 06:00:00 14.5 11 Nordeste 15 Nordeste 0 -- -- 98
2020-06-08 05:00:00 14.8 6 Nordeste 16 Norte 0 -- -- 98
2020-06-08 04:00:00 15.5 9 Norte 17 Este 0 -- -- 98
2020-06-08 03:00:00 15.6 12 Este 27 Este 0 -- -- 97
2020-06-08 02:00:00 15.3 15 Este 26 Este 0.2 -- -- 96
2020-06-08 01:00:00 15.3 10 Este 57 Norte 20.6 -- -- 94
2020-06-08 00:00:00 18.7 19 Nordeste 31 Este 0 -- -- 82
2020-06-07 23:00:00 18.9 15 Nordeste 25 Este 0 -- -- 82
2020-06-07 22:00:00 19.3 14 Nordeste 23 Este 0 -- -- 80
2020-06-07 21:00:00 20.5 14 Nordeste 23 Este 0 -- -- 74
2020-06-07 20:00:00 22.4 13 Este 26 Este 0 -- -- 71
2020-06-07 19:00:00 24.3 12 Sudeste 25 Este 0 -- -- 63
2020-06-07 18:00:00 25.8 13 Este 36 Este 0 -- -- 55
2020-06-07 17:00:00 25.4 21 Nordeste 43 Este 0 -- -- 58
2020-06-07 16:00:00 26.9 18 Oeste 29 Oeste 0 -- -- 60
2020-06-07 15:00:00 24.8 15 Oeste 27 Oeste 0 -- -- 69
2020-06-07 14:00:00 25.4 13 Oeste 24 Oeste 0 -- -- 66
2020-06-07 13:00:00 23.9 13 Oeste 19 Oeste 0 -- -- 73
2020-06-07 12:00:00 23.1 12 Oeste 23 Oeste 0 -- -- 74
2020-06-07 11:00:00 24.1 6 Oeste 17 Nordeste 0 -- -- 73
2020-06-07 10:00:00 22.2 5 Noroeste 21 Sur 1.2 -- -- 83
2020-06-07 09:00:00 24.5 10 Este 16 Este 0 -- -- 70
2020-06-07 08:00:00 21.2 8 Nordeste 16 Este 0 -- -- 86
2020-06-07 07:00:00 18.1 10 Nordeste 16 Nordeste 0 -- -- 89
2020-06-07 06:00:00 18.4 8 Norte 13 Norte 0 -- -- 87
2020-06-07 05:00:00 20.4 8 Sudoeste 27 Sur 0 -- -- 84
2020-06-07 04:00:00 20.5 14 Sur 23 Sur 0 -- -- 81
2020-06-07 03:00:00 19.8 11 Sur 18 Sur 0 -- -- 86
2020-06-07 02:00:00 19.4 10 Sur 21 Sur 0 -- -- 87
2020-06-07 01:00:00 19.4 11 Sur 19 Sur 0 -- -- 88
2020-06-07 00:00:00 19.5 12 Sur 18 Sur 0 -- -- 88
2020-06-06 23:00:00 19.4 9 Sur 14 Sur 0 -- -- 88
2020-06-06 22:00:00 19.8 10 Sur 18 Sur 0 -- -- 87
2020-06-06 21:00:00 20.9 12 Sur 19 Sur 0 -- -- 83
2020-06-06 20:00:00 21.7 13 Sur 21 Sur 0 -- -- 78
2020-06-06 19:00:00 22.4 13 Sur 25 Sur 0 -- -- 77
2020-06-06 18:00:00 22.8 14 Sur 23 Sur 0 -- -- 79
2020-06-06 17:00:00 23.2 14 Sur 24 Sur 0 -- -- 75
2020-06-06 16:00:00 24.4 14 Sudoeste 24 Sudoeste 0 -- -- 73
2020-06-06 15:00:00 24.8 14 Sudoeste 25 Sudoeste 0 -- -- 71
2020-06-06 14:00:00 24 16 Sudoeste 26 Sudoeste 0 -- -- 73
2020-06-06 13:00:00 23.8 14 Sudoeste 24 Sudoeste 0 -- -- 74
2020-06-06 12:00:00 24.5 13 Sudoeste 22 Sudoeste 0 -- -- 71
2020-06-06 11:00:00 24 14 Sudoeste 22 Sudoeste 0 -- -- 72
2020-06-06 10:00:00 23 11 Sudoeste 24 Sudoeste 0 -- -- 81
2020-06-06 09:00:00 21.7 13 Sudoeste 21 Sudoeste 0 -- -- 88
2020-06-06 08:00:00 20 6 Sur 11 Sur 0 -- -- 90
2020-06-06 07:00:00 17.1 4 Este 8 Este 0 -- -- 91
2020-06-06 06:00:00 16.5 7 Este 11 Este 0 -- -- 90
2020-06-06 05:00:00 16.9 7 Este 9 Este 0 -- -- 88
2020-06-06 04:00:00 17.2 3 Sudeste 6 Nordeste 0 -- -- 88
2020-06-06 03:00:00 17.4 3 Sudoeste 7 Norte 0 -- -- 87
2020-06-06 02:00:00 17.5 4 Norte 11 Oeste 0 -- -- 84
2020-06-06 01:00:00 18.8 6 Oeste 13 Oeste 0 -- -- 83
2020-06-06 00:00:00 19.2 8 Sudoeste 19 Oeste 0 -- -- 79
2020-06-05 23:00:00 19.1 8 Sudoeste 30 Oeste 0 -- -- 74
2020-06-05 22:00:00 19.3 13 Sudoeste 23 Oeste 0 -- -- 72
2020-06-05 21:00:00 20.5 10 Sudoeste 18 Oeste 0 -- -- 62
2020-06-05 20:00:00 22.6 9 Oeste 23 Oeste 0 -- -- 53
2020-06-05 19:00:00 22.8 13 Oeste 27 Oeste 0 -- -- 51
2020-06-05 18:00:00 23.9 17 Oeste 33 Noroeste 0 -- -- 46
2020-06-05 17:00:00 23.9 19 Oeste 32 Oeste 0 -- -- 46
2020-06-05 16:00:00 24.4 17 Oeste 33 Oeste 0 -- -- 46
2020-06-05 15:00:00 24.8 18 Oeste 32 Noroeste 0 -- -- 41
2020-06-05 14:00:00 24.1 18 Noroeste 37 Noroeste 0 -- -- 40
2020-06-05 13:00:00 23.9 23 Noroeste 44 Noroeste 0 -- -- 39
2020-06-05 12:00:00 22.9 29 Noroeste 44 Oeste 0 -- -- 44
2020-06-05 11:00:00 22.8 26 Noroeste 45 Noroeste 0 -- -- 43
2020-06-05 10:00:00 21.8 27 Noroeste 41 Noroeste 0 -- -- 52
2020-06-05 09:00:00 21.1 22 Noroeste 36 Noroeste 0 -- -- 56
2020-06-05 08:00:00 19.4 24 Noroeste 39 Noroeste 0 -- -- 66
2020-06-05 07:00:00 18.2 25 Noroeste 40 Oeste 0 -- -- 67
2020-06-05 06:00:00 18 15 Noroeste 39 Noroeste 0 -- -- 67
2020-06-05 05:00:00 18.7 23 Noroeste 40 Noroeste 0 -- -- 60
2020-06-05 04:00:00 19.5 24 Noroeste 38 Oeste 0 -- -- 56
2020-06-05 03:00:00 19.6 17 Noroeste 29 Oeste 0 -- -- 69
2020-06-05 02:00:00 19.6 19 Noroeste 33 Oeste 0 -- -- 78
2020-06-05 01:00:00 19.5 15 Oeste 32 Oeste 0 -- -- 81
2020-06-05 00:00:00 19.2 17 Oeste 30 Oeste 0 -- -- 80
2020-06-04 23:00:00 19.1 17 Oeste 32 Oeste 0 -- -- 79
2020-06-04 22:00:00 18.9 15 Oeste 32 Oeste 0 -- -- 78
2020-06-04 21:00:00 18.2 17 Oeste 33 Oeste 0 -- -- 76
2020-06-04 20:00:00 18.6 17 Oeste 34 Oeste 0 -- -- 76
2020-06-04 19:00:00 18.9 13 Oeste 27 Noroeste 0 -- -- 77
2020-06-04 18:00:00 17.4 13 Oeste 40 Noroeste 0.4 -- -- 82
2020-06-04 17:00:00 19.6 25 Noroeste 42 Noroeste 0 -- -- 65
2020-06-04 16:00:00 22 20 Noroeste 51 Noroeste 0 -- -- 53
2020-06-04 15:00:00 21.1 26 Noroeste 50 Oeste 0 -- -- 74
2020-06-04 14:00:00 24.8 18 Oeste 30 Oeste 0 -- -- 66
2020-06-04 13:00:00 24 14 Oeste 28 Oeste 0 -- -- 68
2020-06-04 12:00:00 24.8 16 Oeste 27 Oeste 0 -- -- 71
2020-06-04 11:00:00 23.9 16 Oeste 28 Oeste 0 -- -- 72
2020-06-04 10:00:00 24.3 12 Oeste 19 Oeste 0 -- -- 74
2020-06-04 09:00:00 23.7 9 Oeste 14 Oeste 0 -- -- 75
2020-06-04 08:00:00 21 7 Oeste 14 Oeste 0 -- -- 89
2020-06-04 07:00:00 20 8 Sudoeste 15 Sudoeste 0 -- -- 90
2020-06-04 06:00:00 19.9 7 Sudoeste 18 Sur 0 -- -- 91
2020-06-04 05:00:00 19.8 13 Sur 18 Sur 0 -- -- 91
2020-06-04 04:00:00 19.6 14 Sur 19 Sur 0 -- -- 89
2020-06-04 03:00:00 19.2 10 Sur 14 Sudeste 0 -- -- 88
2020-06-04 02:00:00 18.7 5 Sur 15 Sur 0 -- -- 87
2020-06-04 01:00:00 19.4 6 Sudoeste 15 Sur 0 -- -- 85
2020-06-04 00:00:00 19.7 13 Sur 24 Sur 0 -- -- 85
2020-06-03 23:00:00 19.6 16 Sur 23 Sur 0 -- -- 84
2020-06-03 22:00:00 20.2 15 Sur 25 Sur 0 -- -- 84
2020-06-03 21:00:00 20.3 16 Sur 26 Sudeste 0 -- -- 83
2020-06-03 20:00:00 21.7 18 Sur 25 Sur 0 -- -- 77
2020-06-03 19:00:00 23.3 16 Sur 25 Sur 0 -- -- 69
2020-06-03 18:00:00 24 16 Sur 25 Sudeste 0 -- -- 62
2020-06-03 17:00:00 24.8 14 Sur 24 Sur 0 -- -- 55
2020-06-03 16:00:00 24.6 16 Sur 27 Sur 0 -- -- 56
2020-06-03 15:00:00 24.5 17 Sur 26 Sudeste 0 -- -- 61
2020-06-03 14:00:00 23.8 18 Sur 25 Sudeste 0 -- -- 61
2020-06-03 13:00:00 24.5 15 Sur 23 Sur 0 -- -- 60
2020-06-03 12:00:00 23.8 14 Sur 21 Sudeste 0 -- -- 61
2020-06-03 11:00:00 25 11 Sur 19 Sudeste 0 -- -- 56
2020-06-03 10:00:00 24.6 8 Sur 17 Sudeste 0 -- -- 54
2020-06-03 09:00:00 21.7 5 Sudeste 10 Sudeste 0 -- -- 69
2020-06-03 08:00:00 21.7 0 Calma 6 Nordeste 0 -- -- 77
2020-06-03 07:00:00 17.4 5 Este 7 Nordeste 0 -- -- 86
2020-06-03 06:00:00 16.7 6 Este 8 Nordeste 0 -- -- 85
2020-06-03 05:00:00 18.1 3 Sur 5 Sur 0 -- -- 83
2020-06-03 04:00:00 18.1 0 Calma 6 Sudoeste 0 -- -- 81
2020-06-03 03:00:00 18.4 0 Calma 6 Norte 0 -- -- 79
2020-06-03 02:00:00 17.7 5 Norte 8 Este 0 -- -- 79
2020-06-03 01:00:00 18.7 4 Sudeste 7 Sudeste 0 -- -- 76
2020-06-03 00:00:00 19.1 5 Sudeste 10 Sudeste 0 -- -- 75